createdAt,value
2023-01-13T00:02:17.491Z,0.88
2023-01-13T00:04:44.052Z,0.65
2023-01-13T00:07:10.818Z,0.80
2023-01-13T00:09:37.330Z,1.10
2023-01-13T00:12:05.753Z,0.90
2023-01-13T00:14:36.233Z,2.63
2023-01-13T00:17:04.422Z,0.93
2023-01-13T00:19:30.955Z,2.70
2023-01-13T00:21:57.859Z,2.92
2023-01-13T00:24:24.607Z,0.73
2023-01-13T00:26:52.748Z,2.10
2023-01-13T00:29:19.291Z,1.58
2023-01-13T00:31:45.949Z,1.35
2023-01-13T00:34:12.736Z,1.70
2023-01-13T00:36:39.256Z,2.88
2023-01-13T00:39:05.786Z,1.48
2023-01-13T00:41:52.273Z,1.63
2023-01-13T00:44:18.924Z,3.13
2023-01-13T00:46:45.509Z,3.97
2023-01-13T00:49:12.265Z,2.40
2023-01-13T00:51:38.823Z,1.52
2023-01-13T00:54:05.393Z,2.60
2023-01-13T00:56:40.264Z,4.22
2023-01-13T00:59:08.289Z,1.50
2023-01-13T01:01:34.878Z,2.05
2023-01-13T01:04:01.529Z,2.05
2023-01-13T01:06:28.375Z,3.10
2023-01-13T01:08:55.760Z,4.47
2023-01-13T01:11:28.732Z,8.80
2023-01-13T01:13:58.003Z,9.13
2023-01-13T01:16:26.500Z,6.35
2023-01-13T01:18:54.551Z,4.88
2023-01-13T01:21:23.087Z,5.07
2023-01-13T01:23:49.978Z,3.53
2023-01-13T01:26:18.754Z,2.88
2023-01-13T01:28:46.214Z,7.80
2023-01-13T01:31:15.897Z,3.30
2023-01-13T01:33:42.516Z,4.47
2023-01-13T01:36:11.352Z,4.38
2023-01-13T01:38:38.137Z,2.92
2023-01-13T01:41:05.275Z,6.70
2023-01-13T01:44:24.252Z,6.00
2023-01-13T01:46:52.131Z,4.07
2023-01-13T01:49:35.452Z,5.43
2023-01-13T01:52:06.533Z,5.30
2023-01-13T01:54:42.599Z,7.05
2023-01-13T01:57:14.018Z,9.07
2023-01-13T01:59:41.795Z,7.07
2023-01-13T02:02:08.852Z,9.55
2023-01-13T02:04:40.932Z,6.35
2023-01-13T02:07:08.134Z,8.32
2023-01-13T02:09:36.746Z,10.02
2023-01-13T02:12:22.092Z,3.35
2023-01-13T02:14:49.010Z,4.85
2023-01-13T02:17:21.412Z,6.00
2023-01-13T02:20:20.323Z,2.65
2023-01-13T02:22:58.211Z,6.53
2023-01-13T02:25:57.101Z,2.20
2023-01-13T02:28:35.274Z,6.10
2023-01-13T02:31:33.987Z,6.15
2023-01-13T02:34:31.946Z,5.15
2023-01-13T02:37:05.111Z,5.40
2023-01-13T02:39:55.802Z,8.23
2023-01-13T02:42:43.729Z,2.92
2023-01-13T02:45:19.363Z,6.05
2023-01-13T02:47:50.369Z,4.85
2023-01-13T02:50:20.801Z,3.95
2023-01-13T02:52:58.371Z,3.92
2023-01-13T02:55:31.139Z,4.93
2023-01-13T02:58:01.101Z,7.63
2023-01-13T03:00:28.179Z,3.90
2023-01-13T03:02:54.947Z,6.05
2023-01-13T03:05:21.388Z,5.38
2023-01-13T03:08:01.012Z,5.22
2023-01-13T03:10:32.574Z,7.93
2023-01-13T03:13:23.818Z,9.38
2023-01-13T03:16:08.497Z,8.13
2023-01-13T03:18:45.201Z,10.00
2023-01-13T03:21:34.267Z,4.90
2023-01-13T03:24:17.276Z,7.05
2023-01-13T03:27:02.419Z,9.27
2023-01-13T03:29:39.777Z,7.25
2023-01-13T03:32:22.951Z,11.57
2023-01-13T03:34:53.984Z,6.60
2023-01-13T03:37:26.313Z,3.30
2023-01-13T03:40:00.204Z,7.25
2023-01-13T03:42:30.355Z,6.22
2023-01-13T03:45:02.847Z,9.52
2023-01-13T03:47:41.665Z,7.55
2023-01-13T03:50:15.926Z,9.40
2023-01-13T03:53:10.311Z,5.70
2023-01-13T03:55:43.636Z,4.70
2023-01-13T03:58:16.357Z,6.45
2023-01-13T04:00:50.558Z,11.02
2023-01-13T04:03:25.793Z,9.27
2023-01-13T04:05:59.244Z,12.48
2023-01-13T04:08:28.006Z,7.45
2023-01-13T04:11:09.999Z,7.80
2023-01-13T04:13:40.077Z,6.90
2023-01-13T04:16:08.126Z,12.10
2023-01-13T04:18:37.994Z,11.27
2023-01-13T04:21:05.334Z,6.55
2023-01-13T04:23:32.623Z,12.85
2023-01-13T04:25:59.582Z,9.35
2023-01-13T04:28:26.781Z,10.02
2023-01-13T04:30:53.349Z,12.05
2023-01-13T04:33:20.495Z,7.10
2023-01-13T04:35:48.092Z,10.65
2023-01-13T04:38:19.378Z,8.35
2023-01-13T04:40:46.054Z,13.63
2023-01-13T04:43:13.214Z,13.68
2023-01-13T04:45:39.653Z,9.98
2023-01-13T04:48:06.396Z,8.00
2023-01-13T04:50:33.044Z,11.10
2023-01-13T04:53:01.131Z,5.32
2023-01-13T04:55:28.063Z,9.60
2023-01-13T04:57:54.599Z,7.25
2023-01-13T05:00:23.000Z,7.90
2023-01-13T05:02:51.188Z,11.55
2023-01-13T05:05:18.692Z,8.40
2023-01-13T05:07:45.490Z,7.65
2023-01-13T05:10:12.757Z,10.15
2023-01-13T05:12:57.338Z,12.02
2023-01-13T05:15:42.473Z,11.93
2023-01-13T05:18:09.149Z,12.20
2023-01-13T05:20:35.820Z,9.13
2023-01-13T05:23:21.523Z,12.65
2023-01-13T05:25:48.946Z,11.85
2023-01-13T05:28:15.642Z,16.65
2023-01-13T05:30:44.528Z,19.92
2023-01-13T05:33:13.049Z,12.13
2023-01-13T05:35:44.779Z,11.45
2023-01-13T05:38:12.239Z,11.63
2023-01-13T05:40:59.632Z,12.10
2023-01-13T05:43:27.047Z,17.17
2023-01-13T05:45:56.612Z,19.60
2023-01-13T05:48:25.796Z,8.52
2023-01-13T05:50:54.143Z,19.20
2023-01-13T05:53:21.756Z,13.93
2023-01-13T05:55:49.116Z,16.33
2023-01-13T05:58:17.544Z,12.77
2023-01-13T06:00:44.447Z,11.27
2023-01-13T06:03:11.537Z,14.73
2023-01-13T06:05:38.585Z,11.00
2023-01-13T06:08:06.720Z,10.18
2023-01-13T06:10:33.598Z,13.50
2023-01-13T06:13:00.179Z,13.07
2023-01-13T06:15:26.635Z,8.68
2023-01-13T06:17:53.287Z,12.38
2023-01-13T06:20:20.348Z,15.88
2023-01-13T06:22:49.861Z,14.63
2023-01-13T06:25:32.005Z,13.90
2023-01-13T06:28:00.570Z,9.55
2023-01-13T06:30:31.146Z,11.88
2023-01-13T06:33:01.085Z,8.20
2023-01-13T06:35:32.122Z,12.55
2023-01-13T06:38:01.187Z,13.05
2023-01-13T06:40:27.851Z,13.20
2023-01-13T06:43:16.430Z,11.20
2023-01-13T06:45:43.181Z,8.85
2023-01-13T06:48:09.549Z,10.00
2023-01-13T06:50:35.940Z,9.40
2023-01-13T06:53:02.437Z,11.02
2023-01-13T06:55:28.801Z,6.45
2023-01-13T06:57:57.419Z,9.77
2023-01-13T07:00:25.338Z,10.70
2023-01-13T07:02:52.074Z,9.85
2023-01-13T07:05:19.514Z,10.38
2023-01-13T07:07:45.943Z,7.72
2023-01-13T07:10:22.230Z,11.25
2023-01-13T07:13:08.640Z,9.48
2023-01-13T07:15:35.621Z,13.88
2023-01-13T07:18:02.516Z,8.20
2023-01-13T07:20:30.352Z,15.07
2023-01-13T07:22:57.337Z,12.48
2023-01-13T07:25:24.056Z,15.10
2023-01-13T07:27:50.450Z,11.38
2023-01-13T07:30:17.178Z,7.70
2023-01-13T07:32:43.591Z,11.15
2023-01-13T07:35:09.957Z,16.05
2023-01-13T07:37:39.277Z,8.60
2023-01-13T07:40:06.398Z,7.05
2023-01-13T07:42:51.429Z,10.40
2023-01-13T07:45:17.825Z,7.45
2023-01-13T07:47:44.169Z,9.30
2023-01-13T07:50:11.087Z,8.98
2023-01-13T07:52:37.452Z,7.95
2023-01-13T07:55:04.071Z,9.85
2023-01-13T07:57:30.442Z,11.88
2023-01-13T07:59:56.895Z,8.95
2023-01-13T08:02:23.534Z,8.95
2023-01-13T08:04:50.091Z,8.85
2023-01-13T08:07:16.450Z,13.30
2023-01-13T08:09:42.837Z,11.75
2023-01-13T08:12:27.937Z,11.60
2023-01-13T08:14:54.587Z,9.63
2023-01-13T08:17:21.022Z,7.05
2023-01-13T08:19:47.679Z,9.73
2023-01-13T08:22:14.089Z,12.40
2023-01-13T08:24:40.491Z,8.38
2023-01-13T08:27:06.973Z,8.80
2023-01-13T08:29:33.464Z,7.43
2023-01-13T08:31:59.932Z,9.25
2023-01-13T08:34:26.334Z,8.95
2023-01-13T08:36:52.744Z,14.57
2023-01-13T08:39:19.109Z,11.07
2023-01-13T08:41:58.543Z,10.52
2023-01-13T08:44:30.336Z,12.40
2023-01-13T08:46:57.465Z,11.30
2023-01-13T08:49:25.156Z,15.50
2023-01-13T08:51:52.408Z,8.65
2023-01-13T08:54:19.577Z,9.77
2023-01-13T08:56:47.050Z,13.52
2023-01-13T08:59:18.891Z,15.05
2023-01-13T09:01:46.124Z,14.20
2023-01-13T09:04:19.351Z,13.55
2023-01-13T09:06:47.358Z,16.25
2023-01-13T09:09:13.980Z,15.07
2023-01-13T09:12:08.378Z,16.65
2023-01-13T09:14:36.589Z,13.20
2023-01-13T09:17:03.473Z,15.05
2023-01-13T09:19:30.545Z,20.25
2023-01-13T09:21:57.702Z,19.30
2023-01-13T09:24:24.895Z,17.08
2023-01-13T09:26:52.024Z,14.63
2023-01-13T09:29:19.023Z,30.48
2023-01-13T09:31:45.498Z,16.75
2023-01-13T09:34:36.714Z,19.90
2023-01-13T09:37:04.957Z,15.57
2023-01-13T09:39:33.085Z,16.30
2023-01-13T09:42:25.585Z,20.95
2023-01-13T09:44:55.724Z,18.73
2023-01-13T09:47:29.069Z,18.75
2023-01-13T09:50:02.684Z,17.05
2023-01-13T09:52:29.397Z,15.80
2023-01-13T09:55:03.028Z,16.98
2023-01-13T09:57:34.417Z,19.50
2023-01-13T10:00:00.965Z,23.23
2023-01-13T10:02:36.446Z,22.38
2023-01-13T10:05:12.924Z,16.95
2023-01-13T10:07:57.645Z,22.17
2023-01-13T10:10:48.568Z,23.15
2023-01-13T10:13:30.568Z,17.15
2023-01-13T10:16:30.935Z,20.55
2023-01-13T10:19:05.860Z,15.20
2023-01-13T10:21:47.518Z,17.70
2023-01-13T10:24:43.450Z,18.13
2023-01-13T10:27:24.029Z,16.20
2023-01-13T10:29:50.441Z,19.55
2023-01-13T10:32:16.793Z,19.35
2023-01-13T10:34:51.102Z,18.08
2023-01-13T10:37:23.300Z,16.25
2023-01-13T10:39:53.837Z,14.15
2023-01-13T10:42:22.774Z,20.17
2023-01-13T10:44:54.150Z,17.52
2023-01-13T10:47:38.484Z,18.83
2023-01-13T10:50:10.847Z,17.10
2023-01-13T10:52:54.954Z,21.13
2023-01-13T10:55:30.260Z,19.02
2023-01-13T10:57:56.834Z,20.42
2023-01-13T11:00:33.712Z,16.20
2023-01-13T11:03:41.437Z,14.93
2023-01-13T11:06:09.444Z,16.55
2023-01-13T11:08:47.860Z,19.20
2023-01-13T11:11:39.482Z,21.85
2023-01-13T11:14:33.115Z,21.80
2023-01-13T11:17:10.381Z,20.67
2023-01-13T11:19:42.578Z,18.05
2023-01-13T11:22:16.005Z,19.95
2023-01-13T11:24:53.073Z,20.83
2023-01-13T11:27:41.388Z,17.88
2023-01-13T11:30:40.139Z,23.63
2023-01-13T11:33:29.286Z,17.48
2023-01-13T11:35:55.546Z,16.27
2023-01-13T11:38:40.441Z,19.42
2023-01-13T11:41:16.337Z,24.23
2023-01-13T11:43:48.015Z,17.00
2023-01-13T11:46:14.490Z,18.80
2023-01-13T11:48:43.097Z,16.10
2023-01-13T11:51:16.141Z,15.30
2023-01-13T11:54:02.690Z,13.63
2023-01-13T11:57:06.554Z,18.73
2023-01-13T11:59:48.233Z,22.20
2023-01-13T12:02:29.880Z,17.17
2023-01-13T12:05:14.711Z,13.05
2023-01-13T12:07:59.849Z,13.95
2023-01-13T12:10:49.340Z,24.83
2023-01-13T12:13:53.240Z,20.35
2023-01-13T12:16:26.905Z,15.00
2023-01-13T12:19:32.376Z,15.68
2023-01-13T12:22:01.731Z,18.23
2023-01-13T12:24:30.699Z,15.50
2023-01-13T12:27:11.414Z,20.55
2023-01-13T12:29:38.847Z,14.68
2023-01-13T12:32:11.609Z,20.35
2023-01-13T12:35:06.111Z,13.77
2023-01-13T12:37:45.795Z,17.95
2023-01-13T12:40:42.575Z,17.23
2023-01-13T12:43:40.005Z,16.83
2023-01-13T12:46:18.475Z,16.30
2023-01-13T12:48:57.200Z,16.48
2023-01-13T12:51:27.762Z,17.58
2023-01-13T12:53:56.241Z,18.50
2023-01-13T12:56:36.538Z,11.63
2023-01-13T12:59:32.372Z,13.60
2023-01-13T13:02:11.241Z,15.15
2023-01-13T13:04:49.455Z,10.75
2023-01-13T13:07:23.444Z,15.60
2023-01-13T13:09:55.221Z,14.30
2023-01-13T13:12:49.793Z,14.18
2023-01-13T13:15:24.928Z,18.45
2023-01-13T13:21:04.948Z,17.23
2023-01-13T13:23:44.297Z,14.27
2023-01-13T13:26:20.257Z,17.55
2023-01-13T13:28:59.627Z,13.63
2023-01-13T13:31:44.154Z,17.52
2023-01-13T13:34:55.349Z,17.40
2023-01-13T13:37:31.355Z,15.27
2023-01-13T13:40:16.738Z,16.52
2023-01-13T13:43:07.599Z,12.60
2023-01-13T13:45:52.717Z,16.85
2023-01-13T13:48:25.165Z,16.90
2023-01-13T13:51:01.741Z,17.00
2023-01-13T13:53:41.944Z,20.50
2023-01-13T13:56:18.106Z,19.15
2023-01-13T13:58:47.958Z,17.08
2023-01-13T14:01:24.404Z,11.43
2023-01-13T14:04:04.483Z,12.85
2023-01-13T14:06:32.773Z,16.27
2023-01-13T14:08:59.155Z,17.08
2023-01-13T14:11:32.297Z,19.00
2023-01-13T14:14:06.871Z,15.85
2023-01-13T14:16:36.201Z,12.23
2023-01-13T14:19:02.898Z,17.92
2023-01-13T14:21:30.428Z,13.85
2023-01-13T14:24:00.192Z,18.77
2023-01-13T14:26:30.522Z,16.38
2023-01-13T14:28:59.492Z,20.33
2023-01-13T14:31:26.468Z,14.40
2023-01-13T14:33:55.619Z,13.68
2023-01-13T14:36:37.663Z,13.85
2023-01-13T14:39:07.111Z,15.05
2023-01-13T14:41:33.462Z,9.32
2023-01-13T14:44:03.883Z,19.90
2023-01-13T14:46:37.388Z,21.75
2023-01-13T14:49:04.336Z,25.20
2023-01-13T14:51:31.462Z,21.30
2023-01-13T14:53:58.431Z,19.35
2023-01-13T14:56:46.714Z,21.00
2023-01-13T14:59:40.305Z,14.20
2023-01-13T15:02:24.796Z,13.93
2023-01-13T15:04:57.659Z,20.75
2023-01-13T15:07:33.234Z,17.58
2023-01-13T15:10:02.336Z,18.23
2023-01-13T15:12:39.376Z,18.42
2023-01-13T15:15:21.002Z,17.30
2023-01-13T15:17:47.422Z,18.95
2023-01-13T15:20:15.449Z,18.02
2023-01-13T15:22:41.943Z,13.77
2023-01-13T15:25:09.566Z,21.92
2023-01-13T15:27:37.223Z,15.68
2023-01-13T15:30:15.487Z,14.27
2023-01-13T15:32:42.655Z,16.20
2023-01-13T15:35:16.809Z,15.95
2023-01-13T15:37:44.445Z,15.07
2023-01-13T15:40:25.796Z,16.58
2023-01-13T15:43:10.825Z,15.57
2023-01-13T15:45:56.628Z,11.77
2023-01-13T15:48:24.641Z,17.02
2023-01-13T15:50:51.312Z,14.38
2023-01-13T15:53:18.028Z,12.50
2023-01-13T15:55:49.311Z,18.15
2023-01-13T15:58:18.985Z,15.88
2023-01-13T16:00:45.382Z,20.10
2023-01-13T16:03:13.841Z,13.65
2023-01-13T16:05:41.385Z,13.50
2023-01-13T16:08:19.145Z,15.00
2023-01-13T16:10:45.967Z,14.52
2023-01-13T16:13:13.525Z,15.68
2023-01-13T16:15:43.583Z,13.05
2023-01-13T16:18:17.496Z,18.83
2023-01-13T16:20:44.218Z,16.42
2023-01-13T16:23:11.286Z,16.17
2023-01-13T16:25:38.221Z,11.60
2023-01-13T16:28:04.754Z,15.68
2023-01-13T16:30:34.582Z,16.08
2023-01-13T16:33:02.484Z,13.45
2023-01-13T16:35:29.337Z,18.27
2023-01-13T16:37:58.432Z,17.13
2023-01-13T16:40:34.617Z,23.50
2023-01-13T16:43:03.444Z,18.67
2023-01-13T16:45:31.154Z,11.77
2023-01-13T16:47:57.551Z,14.07
2023-01-13T16:50:40.814Z,15.10
2023-01-13T16:53:11.574Z,14.75
2023-01-13T16:55:39.958Z,20.05
2023-01-13T16:58:09.775Z,16.40
2023-01-13T17:00:36.148Z,17.35
2023-01-13T17:03:02.738Z,16.40
2023-01-13T17:05:29.376Z,14.00
2023-01-13T17:07:57.011Z,16.48
2023-01-13T17:10:25.081Z,13.80
2023-01-13T17:12:51.529Z,10.95
2023-01-13T17:15:19.426Z,15.45
2023-01-13T17:17:48.630Z,10.93
2023-01-13T17:20:16.207Z,15.85
2023-01-13T17:22:45.614Z,16.92
2023-01-13T17:25:14.572Z,11.57
2023-01-13T17:27:42.017Z,15.90
2023-01-13T17:30:10.471Z,19.50
2023-01-13T17:32:36.801Z,20.67
2023-01-13T17:35:03.468Z,19.73
2023-01-13T17:37:29.885Z,18.20
2023-01-13T17:39:56.211Z,17.83
2023-01-13T17:42:24.904Z,22.98
2023-01-13T17:44:51.296Z,20.75
2023-01-13T17:47:17.958Z,21.20
2023-01-13T17:49:44.453Z,15.35
2023-01-13T17:52:10.909Z,17.75
2023-01-13T17:54:42.859Z,18.33
2023-01-13T17:57:09.919Z,19.77
2023-01-13T17:59:36.350Z,18.77
2023-01-13T18:02:03.129Z,16.67
2023-01-13T18:04:30.829Z,21.50
2023-01-13T18:06:57.235Z,15.32
2023-01-13T18:09:23.676Z,22.08
2023-01-13T18:11:50.256Z,19.63
2023-01-13T18:14:16.790Z,20.83
2023-01-13T18:16:43.526Z,21.73
2023-01-13T18:19:29.461Z,18.55
2023-01-13T18:22:14.199Z,15.73
2023-01-13T18:24:59.502Z,19.20
2023-01-13T18:27:33.235Z,15.73
2023-01-13T18:30:01.511Z,17.38
2023-01-13T18:32:32.796Z,19.55
2023-01-13T18:35:05.973Z,16.73
2023-01-13T18:37:35.626Z,18.95
2023-01-13T18:40:02.237Z,14.07
2023-01-13T18:42:46.952Z,13.15
2023-01-13T18:45:13.464Z,17.52
2023-01-13T18:47:42.126Z,17.30
2023-01-13T18:50:09.614Z,16.25
2023-01-13T18:52:36.330Z,19.50
2023-01-13T18:55:02.835Z,18.42
2023-01-13T18:57:29.380Z,25.10
2023-01-13T18:59:57.034Z,16.85
2023-01-13T19:02:26.439Z,19.80
2023-01-13T19:04:54.031Z,13.35
2023-01-13T19:07:29.136Z,17.23
2023-01-13T19:12:31.114Z,16.48
2023-01-13T19:17:26.888Z,16.98
2023-01-13T19:19:55.738Z,19.85
2023-01-13T19:22:29.652Z,15.35
2023-01-13T19:24:57.430Z,13.48
2023-01-13T19:27:24.870Z,15.43
2023-01-13T19:29:53.969Z,16.17
2023-01-13T19:32:22.000Z,13.40
2023-01-13T19:34:51.397Z,16.77
2023-01-13T19:37:18.911Z,18.98
2023-01-13T19:39:45.546Z,18.00
2023-01-13T19:42:31.734Z,16.20
2023-01-13T19:45:16.734Z,11.60
2023-01-13T19:47:45.818Z,17.00
2023-01-13T19:50:13.852Z,18.38
2023-01-13T19:52:41.503Z,12.13
2023-01-13T19:55:08.198Z,17.23
2023-01-13T19:57:34.569Z,13.80
2023-01-13T20:00:00.981Z,21.00
2023-01-13T20:02:28.176Z,16.23
2023-01-13T20:04:56.077Z,19.42
2023-01-13T20:07:24.303Z,17.80
2023-01-13T20:09:52.160Z,12.60
2023-01-13T20:12:20.024Z,19.17
2023-01-13T20:14:47.706Z,20.25
2023-01-13T20:17:15.661Z,20.77
2023-01-13T20:19:42.309Z,21.65
2023-01-13T20:22:09.095Z,26.60
2023-01-13T20:24:35.547Z,21.17
2023-01-13T20:27:02.154Z,22.75
2023-01-13T20:29:28.841Z,18.83
2023-01-13T20:31:55.813Z,18.10
2023-01-13T20:34:22.976Z,20.50
2023-01-13T20:36:49.882Z,19.92
2023-01-13T20:39:23.415Z,17.80
2023-01-13T20:42:08.636Z,20.58
2023-01-13T20:44:35.264Z,17.33
2023-01-13T20:47:02.722Z,18.73
2023-01-13T20:49:30.178Z,18.25
2023-01-13T20:51:57.538Z,22.55
2023-01-13T20:54:24.463Z,19.10
2023-01-13T20:56:51.033Z,18.73
2023-01-13T20:59:17.534Z,20.98
2023-01-13T21:01:44.076Z,17.00
2023-01-13T21:04:10.604Z,18.85
2023-01-13T21:06:37.028Z,17.48
2023-01-13T21:09:03.615Z,19.38
2023-01-13T21:11:48.662Z,26.15
2023-01-13T21:14:44.232Z,23.23
2023-01-13T21:17:31.530Z,26.33
2023-01-13T21:19:57.994Z,28.92
2023-01-13T21:22:24.952Z,17.52
2023-01-13T21:24:51.364Z,21.52
2023-01-13T21:27:17.737Z,25.15
2023-01-13T21:29:44.539Z,16.27
2023-01-13T21:32:11.181Z,23.73
2023-01-13T21:34:37.612Z,21.92
2023-01-13T21:37:04.117Z,22.58
2023-01-13T21:39:30.505Z,25.20
2023-01-13T21:42:15.620Z,29.23
2023-01-13T21:45:00.382Z,24.17
2023-01-13T21:47:45.195Z,15.70
2023-01-13T21:50:13.488Z,27.75
2023-01-13T21:52:42.951Z,18.63
2023-01-13T21:55:29.230Z,22.50
2023-01-13T21:58:13.033Z,23.70
2023-01-13T22:00:41.901Z,24.27
2023-01-13T22:03:09.233Z,31.85
2023-01-13T22:05:35.974Z,30.45
2023-01-13T22:08:02.418Z,23.30
2023-01-13T22:10:30.586Z,22.17
2023-01-13T22:13:21.482Z,23.98
2023-01-13T22:15:47.916Z,24.15
2023-01-13T22:18:14.273Z,29.08
2023-01-13T22:20:41.977Z,29.90
2023-01-13T22:23:08.404Z,29.58
2023-01-13T22:25:34.806Z,30.17
2023-01-13T22:28:05.893Z,27.73
2023-01-13T22:30:33.071Z,25.48
2023-01-13T22:33:00.181Z,29.02
2023-01-13T22:35:26.715Z,34.95
2023-01-13T22:37:53.057Z,40.15
2023-01-13T22:40:19.572Z,30.27
2023-01-13T22:42:45.931Z,29.00
2023-01-13T22:45:13.864Z,25.73
2023-01-13T22:47:40.690Z,25.65
2023-01-13T22:50:08.166Z,24.00
2023-01-13T22:52:35.522Z,26.40
2023-01-13T22:55:02.218Z,21.33
2023-01-13T22:57:46.695Z,36.42
2023-01-13T23:00:14.982Z,32.90
2023-01-13T23:02:41.521Z,26.55
2023-01-13T23:05:08.254Z,31.48
2023-01-13T23:07:35.596Z,27.52
2023-01-13T23:10:02.603Z,22.30
2023-01-13T23:12:29.021Z,33.83
2023-01-13T23:14:55.441Z,28.23
2023-01-13T23:17:21.846Z,32.45
2023-01-13T23:19:48.188Z,27.00
2023-01-13T23:22:15.585Z,34.20
2023-01-13T23:24:41.954Z,25.88
2023-01-13T23:27:08.314Z,25.38
2023-01-13T23:29:34.691Z,26.17
2023-01-13T23:32:01.098Z,30.52
2023-01-13T23:34:27.702Z,28.58
2023-01-13T23:36:54.115Z,27.42
2023-01-13T23:39:20.491Z,32.90
2023-01-13T23:41:46.843Z,23.88
2023-01-13T23:44:13.171Z,26.70
2023-01-13T23:46:39.726Z,32.85
2023-01-13T23:49:06.149Z,32.92
2023-01-13T23:51:33.096Z,23.88
2023-01-13T23:53:59.858Z,25.90
2023-01-13T23:56:29.252Z,30.38
2023-01-13T23:58:55.917Z,28.80
